sensor_id;sensor_type;location;lat;lon;timestamp;temperature;humidity
40816;DHT22;26535;48.788;9.214;2023-09-07T00:00:49;17.20;95.90
40816;DHT22;26535;48.788;9.214;2023-09-07T00:03:15;17.20;96.50
40816;DHT22;26535;48.788;9.214;2023-09-07T00:05:41;17.20;96.70
40816;DHT22;26535;48.788;9.214;2023-09-07T00:08:07;17.20;96.10
40816;DHT22;26535;48.788;9.214;2023-09-07T00:10:33;17.10;96.70
40816;DHT22;26535;48.788;9.214;2023-09-07T00:13:05;17.10;96.50
40816;DHT22;26535;48.788;9.214;2023-09-07T00:15:36;17.00;96.50
40816;DHT22;26535;48.788;9.214;2023-09-07T00:18:02;17.10;96.90
40816;DHT22;26535;48.788;9.214;2023-09-07T00:20:28;17.00;97.20
40816;DHT22;26535;48.788;9.214;2023-09-07T00:22:54;17.00;97.40
40816;DHT22;26535;48.788;9.214;2023-09-07T00:25:19;16.90;97.40
40816;DHT22;26535;48.788;9.214;2023-09-07T00:27:46;16.90;97.70
40816;DHT22;26535;48.788;9.214;2023-09-07T00:30:12;16.80;97.40
40816;DHT22;26535;48.788;9.214;2023-09-07T06:10:01;15.80;99.90
40816;DHT22;26535;48.788;9.214;2023-09-07T06:12:27;15.90;99.90
40816;DHT22;26535;48.788;9.214;2023-09-07T06:14:53;16.00;99.90
40816;DHT22;26535;48.788;9.214;2023-09-07T06:17:19;16.10;99.90
40816;DHT22;26535;48.788;9.214;2023-09-07T06:19:47;16.10;99.90
40816;DHT22;26535;48.788;9.214;2023-09-07T06:22:33;16.20;99.90
40816;DHT22;26535;48.788;9.214;2023-09-07T06:25:31;16.30;99.90
40816;DHT22;26535;48.788;9.214;2023-09-07T06:27:59;16.30;99.90
40816;DHT22;26535;48.788;9.214;2023-09-07T06:30:26;16.40;99.90
40816;DHT22;26535;48.788;9.214;2023-09-07T06:32:55;16.40;99.90
40816;DHT22;26535;48.788;9.214;2023-09-07T06:35:26;16.60;99.90
40816;DHT22;26535;48.788;9.214;2023-09-07T06:37:53;16.70;99.90
40816;DHT22;26535;48.788;9.214;2023-09-07T06:40:28;16.80;99.90
40816;DHT22;26535;48.788;9.214;2023-09-07T06:42:56;16.90;99.90
40816;DHT22;26535;48.788;9.214;2023-09-07T06:45:27;17.00;99.90
40816;DHT22;26535;48.788;9.214;2023-09-07T06:48:05;17.10;99.90
40816;DHT22;26535;48.788;9.214;2023-09-07T06:50:34;17.30;99.90
40816;DHT22;26535;48.788;9.214;2023-09-07T06:53:13;17.40;99.90
40816;DHT22;26535;48.788;9.214;2023-09-07T06:55:38;17.50;99.90
40816;DHT22;26535;48.788;9.214;2023-09-07T06:58:07;17.50;99.90
40816;DHT22;26535;48.788;9.214;2023-09-07T07:00:34;17.70;99.90
40816;DHT22;26535;48.788;9.214;2023-09-07T07:03:16;17.80;99.90
40816;DHT22;26535;48.788;9.214;2023-09-07T07:05:42;17.90;99.90
40816;DHT22;26535;48.788;9.214;2023-09-07T07:08:09;17.90;99.90
40816;DHT22;26535;48.788;9.214;2023-09-07T07:10:34;18.00;99.90
40816;DHT22;26535;48.788;9.214;2023-09-07T07:13:15;18.20;99.90
40816;DHT22;26535;48.788;9.214;2023-09-07T07:15:47;18.30;99.90
40816;DHT22;26535;48.788;9.214;2023-09-07T07:18:25;18.40;99.90
40816;DHT22;26535;48.788;9.214;2023-09-07T07:21:05;18.40;99.90
40816;DHT22;26535;48.788;9.214;2023-09-07T07:23:38;18.60;99.90
40816;DHT22;26535;48.788;9.214;2023-09-07T07:26:13;18.70;99.90
40816;DHT22;26535;48.788;9.214;2023-09-07T07:28:39;18.80;99.90
40816;DHT22;26535;48.788;9.214;2023-09-07T07:31:11;18.90;99.90
40816;DHT22;26535;48.788;9.214;2023-09-07T07:33:54;19.00;99.40
40816;DHT22;26535;48.788;9.214;2023-09-07T07:36:24;19.00;99.20
40816;DHT22;26535;48.788;9.214;2023-09-07T07:38:55;19.10;98.80
40816;DHT22;26535;48.788;9.214;2023-09-07T07:41:21;19.20;98.90
40816;DHT22;26535;48.788;9.214;2023-09-07T07:43:48;19.40;98.50
40816;DHT22;26535;48.788;9.214;2023-09-07T07:46:15;19.50;98.20
40816;DHT22;26535;48.788;9.214;2023-09-07T07:48:42;19.50;97.80
40816;DHT22;26535;48.788;9.214;2023-09-07T07:51:08;19.60;97.60
40816;DHT22;26535;48.788;9.214;2023-09-07T07:53:38;19.70;97.40
40816;DHT22;26535;48.788;9.214;2023-09-07T07:56:04;19.80;96.90
40816;DHT22;26535;48.788;9.214;2023-09-07T07:58:58;19.90;96.70
40816;DHT22;26535;48.788;9.214;2023-09-07T08:01:24;20.10;96.60
40816;DHT22;26535;48.788;9.214;2023-09-07T08:03:57;20.20;96.10
40816;DHT22;26535;48.788;9.214;2023-09-07T08:06:30;20.30;96.00
40816;DHT22;26535;48.788;9.214;2023-09-07T08:08:56;20.40;95.80
40816;DHT22;26535;48.788;9.214;2023-09-07T08:11:22;20.50;95.50
40816;DHT22;26535;48.788;9.214;2023-09-07T08:13:49;20.60;95.50
40816;DHT22;26535;48.788;9.214;2023-09-07T08:16:16;20.80;95.10
40816;DHT22;26535;48.788;9.214;2023-09-07T08:18:43;20.80;95.10
40816;DHT22;26535;48.788;9.214;2023-09-07T08:21:31;20.90;94.60
40816;DHT22;26535;48.788;9.214;2023-09-07T08:23:57;21.00;94.70
40816;DHT22;26535;48.788;9.214;2023-09-07T08:26:23;21.00;94.20
40816;DHT22;26535;48.788;9.214;2023-09-07T08:28:49;21.10;94.20
40816;DHT22;26535;48.788;9.214;2023-09-07T08:31:15;21.20;93.80
40816;DHT22;26535;48.788;9.214;2023-09-07T08:33:46;21.20;93.80
40816;DHT22;26535;48.788;9.214;2023-09-07T08:36:12;21.30;93.30
40816;DHT22;26535;48.788;9.214;2023-09-07T08:38:41;21.40;93.00
40816;DHT22;26535;48.788;9.214;2023-09-07T08:41:08;21.40;92.80
40816;DHT22;26535;48.788;9.214;2023-09-07T08:43:43;21.60;92.70
40816;DHT22;26535;48.788;9.214;2023-09-07T08:46:20;21.60;92.40
40816;DHT22;26535;48.788;9.214;2023-09-07T08:49:03;21.70;92.40
40816;DHT22;26535;48.788;9.214;2023-09-07T08:51:33;21.90;92.20
40816;DHT22;26535;48.788;9.214;2023-09-07T08:54:00;22.00;92.20
40816;DHT22;26535;48.788;9.214;2023-09-07T08:56:26;22.10;92.00
40816;DHT22;26535;48.788;9.214;2023-09-07T08:58:55;22.10;91.90
40816;DHT22;26535;48.788;9.214;2023-09-07T09:01:24;22.20;91.80
40816;DHT22;26535;48.788;9.214;2023-09-07T09:03:50;22.30;91.50
40816;DHT22;26535;48.788;9.214;2023-09-07T09:06:17;22.30;91.30
40816;DHT22;26535;48.788;9.214;2023-09-07T09:08:52;22.30;91.50
40816;DHT22;26535;48.788;9.214;2023-09-07T09:11:24;22.40;91.20
40816;DHT22;26535;48.788;9.214;2023-09-07T09:13:52;22.40;91.60
40816;DHT22;26535;48.788;9.214;2023-09-07T09:16:18;22.50;91.20
40816;DHT22;26535;48.788;9.214;2023-09-07T09:18:51;22.70;91.10
40816;DHT22;26535;48.788;9.214;2023-09-07T09:21:23;22.80;91.20
40816;DHT22;26535;48.788;9.214;2023-09-07T09:23:51;22.80;90.60
40816;DHT22;26535;48.788;9.214;2023-09-07T09:26:19;23.00;90.60
40816;DHT22;26535;48.788;9.214;2023-09-07T09:28:45;23.00;90.40
40816;DHT22;26535;48.788;9.214;2023-09-07T09:31:11;23.20;90.00
40816;DHT22;26535;48.788;9.214;2023-09-07T09:33:47;23.20;90.10
40816;DHT22;26535;48.788;9.214;2023-09-07T09:36:14;23.30;90.20
40816;DHT22;26535;48.788;9.214;2023-09-07T09:38:39;23.40;90.10
40816;DHT22;26535;48.788;9.214;2023-09-07T09:41:06;23.50;89.50
40816;DHT22;26535;48.788;9.214;2023-09-07T09:43:33;23.70;89.60
40816;DHT22;26535;48.788;9.214;2023-09-07T09:46:15;23.70;89.20
40816;DHT22;26535;48.788;9.214;2023-09-07T09:48:42;23.80;88.90
40816;DHT22;26535;48.788;9.214;2023-09-07T09:51:08;23.90;88.50
40816;DHT22;26535;48.788;9.214;2023-09-07T09:53:33;23.80;87.80
40816;DHT22;26535;48.788;9.214;2023-09-07T09:56:15;23.90;88.40
40816;DHT22;26535;48.788;9.214;2023-09-07T10:01:46;24.10;88.20
40816;DHT22;26535;48.788;9.214;2023-09-07T10:04:22;24.20;88.20
40816;DHT22;26535;48.788;9.214;2023-09-07T10:06:58;24.30;88.00
40816;DHT22;26535;48.788;9.214;2023-09-07T10:09:37;24.50;87.00
40816;DHT22;26535;48.788;9.214;2023-09-07T10:12:11;24.50;87.10
40816;DHT22;26535;48.788;9.214;2023-09-07T10:14:50;24.50;86.60
40816;DHT22;26535;48.788;9.214;2023-09-07T10:17:23;24.60;86.40
40816;DHT22;26535;48.788;9.214;2023-09-07T10:19:49;24.60;86.30
40816;DHT22;26535;48.788;9.214;2023-09-07T10:22:23;24.60;86.50
40816;DHT22;26535;48.788;9.214;2023-09-07T10:27:43;24.80;86.10
40816;DHT22;26535;48.788;9.214;2023-09-07T10:30:12;24.80;85.10
40816;DHT22;26535;48.788;9.214;2023-09-07T10:32:57;24.90;85.50
40816;DHT22;26535;48.788;9.214;2023-09-07T10:35:29;25.00;85.00
40816;DHT22;26535;48.788;9.214;2023-09-07T10:38:35;25.10;85.20
40816;DHT22;26535;48.788;9.214;2023-09-07T10:41:03;25.30;85.10
40816;DHT22;26535;48.788;9.214;2023-09-07T10:43:50;25.50;85.10
40816;DHT22;26535;48.788;9.214;2023-09-07T10:46:19;25.70;84.50
40816;DHT22;26535;48.788;9.214;2023-09-07T10:48:45;25.60;83.90
40816;DHT22;26535;48.788;9.214;2023-09-07T10:51:13;25.70;83.10
40816;DHT22;26535;48.788;9.214;2023-09-07T10:53:42;25.80;84.00
40816;DHT22;26535;48.788;9.214;2023-09-07T10:56:14;26.00;83.10
40816;DHT22;26535;48.788;9.214;2023-09-07T10:58:40;26.30;82.80
40816;DHT22;26535;48.788;9.214;2023-09-07T11:01:31;26.30;82.10
40816;DHT22;26535;48.788;9.214;2023-09-07T11:04:00;26.50;81.40
40816;DHT22;26535;48.788;9.214;2023-09-07T11:09:51;27.40;79.50
40816;DHT22;26535;48.788;9.214;2023-09-07T11:12:20;28.00;78.20
40816;DHT22;26535;48.788;9.214;2023-09-07T11:14:56;28.30;76.50
40816;DHT22;26535;48.788;9.214;2023-09-07T11:20:41;29.70;73.60
40816;DHT22;26535;48.788;9.214;2023-09-07T11:23:12;30.90;71.20
40816;DHT22;26535;48.788;9.214;2023-09-07T11:25:39;31.60;69.70
40816;DHT22;26535;48.788;9.214;2023-09-07T11:28:09;32.20;68.40
40816;DHT22;26535;48.788;9.214;2023-09-07T11:31:27;32.90;66.10
40816;DHT22;26535;48.788;9.214;2023-09-07T11:33:56;33.80;64.40
40816;DHT22;26535;48.788;9.214;2023-09-07T11:36:22;34.40;62.90
40816;DHT22;26535;48.788;9.214;2023-09-07T11:39:31;35.20;61.60
40816;DHT22;26535;48.788;9.214;2023-09-07T11:42:03;36.00;60.70
40816;DHT22;26535;48.788;9.214;2023-09-07T11:44:29;36.60;59.30
40816;DHT22;26535;48.788;9.214;2023-09-07T11:47:17;36.60;59.00
40816;DHT22;26535;48.788;9.214;2023-09-07T11:49:46;36.90;58.30
40816;DHT22;26535;48.788;9.214;2023-09-07T11:52:12;37.20;57.60
40816;DHT22;26535;48.788;9.214;2023-09-07T11:55:02;37.70;56.80
40816;DHT22;26535;48.788;9.214;2023-09-07T11:57:37;38.00;56.20
40816;DHT22;26535;48.788;9.214;2023-09-07T12:00:05;38.50;55.50
40816;DHT22;26535;48.788;9.214;2023-09-07T12:02:40;38.70;54.90
40816;DHT22;26535;48.788;9.214;2023-09-07T12:05:07;39.10;54.50
40816;DHT22;26535;48.788;9.214;2023-09-07T12:07:58;39.20;53.50
40816;DHT22;26535;48.788;9.214;2023-09-07T12:10:23;39.00;53.80
40816;DHT22;26535;48.788;9.214;2023-09-07T12:12:49;39.00;53.60
40816;DHT22;26535;48.788;9.214;2023-09-07T12:15:15;39.10;53.50
40816;DHT22;26535;48.788;9.214;2023-09-07T12:17:52;39.50;53.30
40816;DHT22;26535;48.788;9.214;2023-09-07T12:20:39;39.70;53.10
40816;DHT22;26535;48.788;9.214;2023-09-07T12:23:07;39.70;52.30
40816;DHT22;26535;48.788;9.214;2023-09-07T12:25:41;40.40;51.40
40816;DHT22;26535;48.788;9.214;2023-09-07T12:28:06;40.90;50.90
40816;DHT22;26535;48.788;9.214;2023-09-07T12:30:32;41.00;50.30
40816;DHT22;26535;48.788;9.214;2023-09-07T12:32:58;40.50;50.50
40816;DHT22;26535;48.788;9.214;2023-09-07T12:35:23;40.50;49.80
40816;DHT22;26535;48.788;9.214;2023-09-07T12:37:49;40.90;50.10
40816;DHT22;26535;48.788;9.214;2023-09-07T12:40:15;40.90;50.10
40816;DHT22;26535;48.788;9.214;2023-09-07T12:42:45;41.00;49.80
40816;DHT22;26535;48.788;9.214;2023-09-07T12:45:12;41.00;49.80
40816;DHT22;26535;48.788;9.214;2023-09-07T12:47:39;40.70;50.00
40816;DHT22;26535;48.788;9.214;2023-09-07T12:50:05;41.10;49.40
40816;DHT22;26535;48.788;9.214;2023-09-07T12:52:33;42.10;48.30
40816;DHT22;26535;48.788;9.214;2023-09-07T12:55:00;42.40;48.70
40816;DHT22;26535;48.788;9.214;2023-09-07T12:57:25;42.70;48.10
40816;DHT22;26535;48.788;9.214;2023-09-07T12:59:51;42.30;48.20
40816;DHT22;26535;48.788;9.214;2023-09-07T13:02:17;42.60;47.90
40816;DHT22;26535;48.788;9.214;2023-09-07T13:04:42;43.10;47.20
40816;DHT22;26535;48.788;9.214;2023-09-07T13:07:08;43.20;47.20
40816;DHT22;26535;48.788;9.214;2023-09-07T13:09:34;43.10;47.20
40816;DHT22;26535;48.788;9.214;2023-09-07T13:12:00;43.00;47.50
40816;DHT22;26535;48.788;9.214;2023-09-07T13:14:25;43.20;47.30
40816;DHT22;26535;48.788;9.214;2023-09-07T13:16:51;42.90;47.20
40816;DHT22;26535;48.788;9.214;2023-09-07T13:19:17;43.60;46.70
40816;DHT22;26535;48.788;9.214;2023-09-07T13:21:43;44.30;46.20
40816;DHT22;26535;48.788;9.214;2023-09-07T13:24:08;45.10;46.30
40816;DHT22;26535;48.788;9.214;2023-09-07T13:26:34;45.70;45.30
40816;DHT22;26535;48.788;9.214;2023-09-07T13:29:00;45.80;44.90
40816;DHT22;26535;48.788;9.214;2023-09-07T13:31:25;45.80;45.20
40816;DHT22;26535;48.788;9.214;2023-09-07T13:33:51;46.30;44.90
40816;DHT22;26535;48.788;9.214;2023-09-07T13:36:16;45.60;44.60
40816;DHT22;26535;48.788;9.214;2023-09-07T13:38:42;45.40;44.90
40816;DHT22;26535;48.788;9.214;2023-09-07T13:41:09;45.80;45.10
40816;DHT22;26535;48.788;9.214;2023-09-07T13:43:35;46.30;44.20
40816;DHT22;26535;48.788;9.214;2023-09-07T13:46:01;46.70;43.90
40816;DHT22;26535;48.788;9.214;2023-09-07T13:48:26;46.90;43.60
40816;DHT22;26535;48.788;9.214;2023-09-07T13:50:52;46.50;43.70
40816;DHT22;26535;48.788;9.214;2023-09-07T13:53:18;46.60;43.80
40816;DHT22;26535;48.788;9.214;2023-09-07T13:55:43;46.70;44.10
40816;DHT22;26535;48.788;9.214;2023-09-07T13:58:11;47.20;43.50
40816;DHT22;26535;48.788;9.214;2023-09-07T14:00:37;47.40;42.80
40816;DHT22;26535;48.788;9.214;2023-09-07T14:03:04;47.90;43.10
40816;DHT22;26535;48.788;9.214;2023-09-07T14:05:30;48.10;42.70
40816;DHT22;26535;48.788;9.214;2023-09-07T14:07:55;48.10;43.00
40816;DHT22;26535;48.788;9.214;2023-09-07T14:10:22;48.40;42.50
40816;DHT22;26535;48.788;9.214;2023-09-07T14:12:48;47.70;42.70
40816;DHT22;26535;48.788;9.214;2023-09-07T14:15:14;48.00;42.30
40816;DHT22;26535;48.788;9.214;2023-09-07T14:17:40;47.40;42.20
40816;DHT22;26535;48.788;9.214;2023-09-07T14:20:06;47.40;42.90
40816;DHT22;26535;48.788;9.214;2023-09-07T14:22:32;47.50;42.10
40816;DHT22;26535;48.788;9.214;2023-09-07T14:24:58;47.90;42.40
40816;DHT22;26535;48.788;9.214;2023-09-07T14:27:24;47.30;42.50
40816;DHT22;26535;48.788;9.214;2023-09-07T14:29:51;46.20;43.40
40816;DHT22;26535;48.788;9.214;2023-09-07T14:32:17;46.40;43.30
40816;DHT22;26535;48.788;9.214;2023-09-07T14:34:42;46.50;43.70
40816;DHT22;26535;48.788;9.214;2023-09-07T14:37:08;46.70;42.80
40816;DHT22;26535;48.788;9.214;2023-09-07T14:39:34;46.90;43.00
40816;DHT22;26535;48.788;9.214;2023-09-07T14:42:01;46.90;42.90
40816;DHT22;26535;48.788;9.214;2023-09-07T14:44:27;47.40;42.50
40816;DHT22;26535;48.788;9.214;2023-09-07T14:46:52;47.00;42.40
40816;DHT22;26535;48.788;9.214;2023-09-07T14:49:21;46.50;42.70
40816;DHT22;26535;48.788;9.214;2023-09-07T14:51:47;45.40;43.10
40816;DHT22;26535;48.788;9.214;2023-09-07T14:54:13;46.00;43.30
40816;DHT22;26535;48.788;9.214;2023-09-07T14:56:39;46.40;43.30
40816;DHT22;26535;48.788;9.214;2023-09-07T14:59:05;47.50;42.80
40816;DHT22;26535;48.788;9.214;2023-09-07T15:01:32;47.70;42.40
40816;DHT22;26535;48.788;9.214;2023-09-07T15:04:00;48.30;41.80
40816;DHT22;26535;48.788;9.214;2023-09-07T15:06:26;48.20;41.90
40816;DHT22;26535;48.788;9.214;2023-09-07T15:08:52;48.20;41.40
40816;DHT22;26535;48.788;9.214;2023-09-07T15:11:17;48.00;41.60
40816;DHT22;26535;48.788;9.214;2023-09-07T15:13:43;47.50;42.00
40816;DHT22;26535;48.788;9.214;2023-09-07T15:16:11;47.80;41.90
40816;DHT22;26535;48.788;9.214;2023-09-07T15:18:36;47.60;41.70
40816;DHT22;26535;48.788;9.214;2023-09-07T15:21:02;48.00;42.40
40816;DHT22;26535;48.788;9.214;2023-09-07T15:23:28;48.40;41.90
40816;DHT22;26535;48.788;9.214;2023-09-07T15:25:54;48.80;41.30
40816;DHT22;26535;48.788;9.214;2023-09-07T15:28:20;49.00;41.20
40816;DHT22;26535;48.788;9.214;2023-09-07T15:30:46;48.60;41.10
40816;DHT22;26535;48.788;9.214;2023-09-07T15:33:11;48.30;41.50
40816;DHT22;26535;48.788;9.214;2023-09-07T15:35:37;48.50;41.60
40816;DHT22;26535;48.788;9.214;2023-09-07T15:38:06;48.80;41.10
40816;DHT22;26535;48.788;9.214;2023-09-07T15:40:32;48.10;41.00
40816;DHT22;26535;48.788;9.214;2023-09-07T15:42:58;47.50;41.90
40816;DHT22;26535;48.788;9.214;2023-09-07T15:45:24;47.30;41.70
40816;DHT22;26535;48.788;9.214;2023-09-07T15:47:49;47.10;41.90
40816;DHT22;26535;48.788;9.214;2023-09-07T15:50:15;47.30;41.40
40816;DHT22;26535;48.788;9.214;2023-09-07T15:52:48;47.10;41.70
40816;DHT22;26535;48.788;9.214;2023-09-07T15:55:15;46.60;41.60
40816;DHT22;26535;48.788;9.214;2023-09-07T15:57:43;46.70;42.00
40816;DHT22;26535;48.788;9.214;2023-09-07T16:00:09;46.70;41.80
40816;DHT22;26535;48.788;9.214;2023-09-07T16:02:38;46.60;41.60
40816;DHT22;26535;48.788;9.214;2023-09-07T16:05:04;46.00;41.90
40816;DHT22;26535;48.788;9.214;2023-09-07T16:07:30;46.30;41.80
40816;DHT22;26535;48.788;9.214;2023-09-07T16:09:55;46.20;41.30
40816;DHT22;26535;48.788;9.214;2023-09-07T16:12:21;45.50;41.80
40816;DHT22;26535;48.788;9.214;2023-09-07T16:14:48;45.70;42.10
40816;DHT22;26535;48.788;9.214;2023-09-07T16:17:14;45.60;42.10
40816;DHT22;26535;48.788;9.214;2023-09-07T16:19:40;45.80;42.00
40816;DHT22;26535;48.788;9.214;2023-09-07T16:22:07;45.70;41.80
40816;DHT22;26535;48.788;9.214;2023-09-07T16:24:34;45.40;41.90
40816;DHT22;26535;48.788;9.214;2023-09-07T16:27:01;44.70;42.40
40816;DHT22;26535;48.788;9.214;2023-09-07T16:29:27;44.90;42.50
40816;DHT22;26535;48.788;9.214;2023-09-07T16:31:52;44.50;42.30
40816;DHT22;26535;48.788;9.214;2023-09-07T16:34:18;43.90;42.70
40816;DHT22;26535;48.788;9.214;2023-09-07T16:36:44;43.90;43.20
40816;DHT22;26535;48.788;9.214;2023-09-07T16:39:10;44.10;42.80
40816;DHT22;26535;48.788;9.214;2023-09-07T16:41:36;43.90;42.70
40816;DHT22;26535;48.788;9.214;2023-09-07T16:44:02;43.70;42.90
40816;DHT22;26535;48.788;9.214;2023-09-07T16:46:28;43.20;43.10
40816;DHT22;26535;48.788;9.214;2023-09-07T16:48:54;42.80;43.40
40816;DHT22;26535;48.788;9.214;2023-09-07T16:51:19;43.10;43.10
40816;DHT22;26535;48.788;9.214;2023-09-07T16:53:47;42.90;43.10
40816;DHT22;26535;48.788;9.214;2023-09-07T16:56:13;42.50;43.30
40816;DHT22;26535;48.788;9.214;2023-09-07T16:58:43;41.40;43.80
40816;DHT22;26535;48.788;9.214;2023-09-07T17:01:09;40.00;44.80
40816;DHT22;26535;48.788;9.214;2023-09-07T17:03:35;38.40;46.00
40816;DHT22;26535;48.788;9.214;2023-09-07T17:06:00;36.90;47.90
40816;DHT22;26535;48.788;9.214;2023-09-07T17:08:26;35.50;48.90
40816;DHT22;26535;48.788;9.214;2023-09-07T17:10:52;34.60;50.10
40816;DHT22;26535;48.788;9.214;2023-09-07T17:13:18;33.80;51.00
40816;DHT22;26535;48.788;9.214;2023-09-07T17:15:48;32.90;52.80
40816;DHT22;26535;48.788;9.214;2023-09-07T17:18:14;32.50;53.60
40816;DHT22;26535;48.788;9.214;2023-09-07T17:20:40;31.90;53.80
40816;DHT22;26535;48.788;9.214;2023-09-07T17:23:06;31.50;54.20
40816;DHT22;26535;48.788;9.214;2023-09-07T17:25:33;31.20;55.50
40816;DHT22;26535;48.788;9.214;2023-09-07T17:28:00;30.90;55.40
40816;DHT22;26535;48.788;9.214;2023-09-07T17:30:25;30.50;55.90
40816;DHT22;26535;48.788;9.214;2023-09-07T17:32:52;30.30;56.60
40816;DHT22;26535;48.788;9.214;2023-09-07T17:35:22;30.00;56.90
40816;DHT22;26535;48.788;9.214;2023-09-07T17:37:48;29.70;57.30
40816;DHT22;26535;48.788;9.214;2023-09-07T17:40:14;29.60;57.90
40816;DHT22;26535;48.788;9.214;2023-09-07T17:42:42;29.40;58.70
40816;DHT22;26535;48.788;9.214;2023-09-07T17:45:08;29.20;58.90
40816;DHT22;26535;48.788;9.214;2023-09-07T17:47:34;29.00;59.30
40816;DHT22;26535;48.788;9.214;2023-09-07T17:50:00;28.90;60.10
40816;DHT22;26535;48.788;9.214;2023-09-07T17:52:25;29.00;60.50
40816;DHT22;26535;48.788;9.214;2023-09-07T17:54:51;28.90;60.90
40816;DHT22;26535;48.788;9.214;2023-09-07T17:57:18;28.80;61.00
40816;DHT22;26535;48.788;9.214;2023-09-07T17:59:44;28.60;61.60
40816;DHT22;26535;48.788;9.214;2023-09-07T18:02:20;28.50;62.20
40816;DHT22;26535;48.788;9.214;2023-09-07T18:04:49;28.30;62.70
40816;DHT22;26535;48.788;9.214;2023-09-07T18:07:16;28.10;63.20
40816;DHT22;26535;48.788;9.214;2023-09-07T18:09:41;27.90;63.80
40816;DHT22;26535;48.788;9.214;2023-09-07T18:12:08;27.80;64.30
40816;DHT22;26535;48.788;9.214;2023-09-07T18:14:34;27.70;64.60
40816;DHT22;26535;48.788;9.214;2023-09-07T18:17:00;27.60;65.00
40816;DHT22;26535;48.788;9.214;2023-09-07T18:19:25;27.50;65.50
40816;DHT22;26535;48.788;9.214;2023-09-07T18:21:51;27.30;66.00
40816;DHT22;26535;48.788;9.214;2023-09-07T18:24:17;27.10;66.60
40816;DHT22;26535;48.788;9.214;2023-09-07T18:26:42;27.00;67.10
40816;DHT22;26535;48.788;9.214;2023-09-07T18:29:13;26.80;67.60
40816;DHT22;26535;48.788;9.214;2023-09-07T18:31:39;26.70;68.10
40816;DHT22;26535;48.788;9.214;2023-09-07T18:34:04;26.60;68.50
40816;DHT22;26535;48.788;9.214;2023-09-07T18:36:30;26.50;68.70
40816;DHT22;26535;48.788;9.214;2023-09-07T18:38:56;26.40;69.10
40816;DHT22;26535;48.788;9.214;2023-09-07T18:41:21;26.20;69.60
40816;DHT22;26535;48.788;9.214;2023-09-07T18:43:47;26.10;70.30
40816;DHT22;26535;48.788;9.214;2023-09-07T18:46:13;26.00;70.70
40816;DHT22;26535;48.788;9.214;2023-09-07T18:48:39;25.90;70.60
40816;DHT22;26535;48.788;9.214;2023-09-07T18:51:06;25.80;71.60
40816;DHT22;26535;48.788;9.214;2023-09-07T18:53:32;25.70;71.60
40816;DHT22;26535;48.788;9.214;2023-09-07T18:56:02;25.60;72.00
40816;DHT22;26535;48.788;9.214;2023-09-07T18:58:28;25.50;72.70
40816;DHT22;26535;48.788;9.214;2023-09-07T19:00:53;25.40;72.80
40816;DHT22;26535;48.788;9.214;2023-09-07T19:03:19;25.30;73.30
40816;DHT22;26535;48.788;9.214;2023-09-07T19:05:45;25.20;73.60
40816;DHT22;26535;48.788;9.214;2023-09-07T19:08:11;25.10;74.20
40816;DHT22;26535;48.788;9.214;2023-09-07T19:10:37;24.90;74.90
40816;DHT22;26535;48.788;9.214;2023-09-07T19:13:02;24.80;75.80
40816;DHT22;26535;48.788;9.214;2023-09-07T19:15:28;24.70;75.50
40816;DHT22;26535;48.788;9.214;2023-09-07T19:17:55;24.50;76.00
40816;DHT22;26535;48.788;9.214;2023-09-07T19:20:21;24.40;76.10
40816;DHT22;26535;48.788;9.214;2023-09-07T19:22:46;24.30;76.60
40816;DHT22;26535;48.788;9.214;2023-09-07T19:25:12;24.20;77.10
40816;DHT22;26535;48.788;9.214;2023-09-07T19:27:38;24.10;77.40
40816;DHT22;26535;48.788;9.214;2023-09-07T19:30:08;24.00;77.80
40816;DHT22;26535;48.788;9.214;2023-09-07T19:32:35;23.90;78.40
40816;DHT22;26535;48.788;9.214;2023-09-07T19:35:01;23.80;79.00
40816;DHT22;26535;48.788;9.214;2023-09-07T19:37:33;23.70;79.70
40816;DHT22;26535;48.788;9.214;2023-09-07T19:39:59;23.60;80.20
40816;DHT22;26535;48.788;9.214;2023-09-07T19:42:25;23.50;80.90
40816;DHT22;26535;48.788;9.214;2023-09-07T19:44:51;23.40;81.20
40816;DHT22;26535;48.788;9.214;2023-09-07T19:47:16;23.30;81.50
40816;DHT22;26535;48.788;9.214;2023-09-07T19:49:43;23.20;82.00
40816;DHT22;26535;48.788;9.214;2023-09-07T19:52:08;23.10;82.40
40816;DHT22;26535;48.788;9.214;2023-09-07T19:54:34;23.00;82.50
40816;DHT22;26535;48.788;9.214;2023-09-07T19:57:00;23.00;82.60
40816;DHT22;26535;48.788;9.214;2023-09-07T19:59:25;23.00;83.30
40816;DHT22;26535;48.788;9.214;2023-09-07T20:01:53;22.90;83.50
40816;DHT22;26535;48.788;9.214;2023-09-07T20:04:20;22.80;83.50
40816;DHT22;26535;48.788;9.214;2023-09-07T20:06:46;22.80;83.50
40816;DHT22;26535;48.788;9.214;2023-09-07T20:09:12;22.80;83.30
40816;DHT22;26535;48.788;9.214;2023-09-07T20:11:39;22.70;83.40
40816;DHT22;26535;48.788;9.214;2023-09-07T20:14:05;22.70;83.60
40816;DHT22;26535;48.788;9.214;2023-09-07T20:16:31;22.60;83.50
40816;DHT22;26535;48.788;9.214;2023-09-07T20:18:57;22.60;84.50
40816;DHT22;26535;48.788;9.214;2023-09-07T20:21:22;22.50;83.90
40816;DHT22;26535;48.788;9.214;2023-09-07T20:23:48;22.40;85.00
40816;DHT22;26535;48.788;9.214;2023-09-07T20:26:14;22.30;85.00
40816;DHT22;26535;48.788;9.214;2023-09-07T20:28:40;22.30;85.10
40816;DHT22;26535;48.788;9.214;2023-09-07T20:31:10;22.20;85.90
40816;DHT22;26535;48.788;9.214;2023-09-07T20:33:36;22.00;86.10
40816;DHT22;26535;48.788;9.214;2023-09-07T20:36:02;21.90;86.70
40816;DHT22;26535;48.788;9.214;2023-09-07T20:38:29;21.80;86.70
40816;DHT22;26535;48.788;9.214;2023-09-07T20:40:55;21.70;87.60
40816;DHT22;26535;48.788;9.214;2023-09-07T20:43:21;21.60;87.80
40816;DHT22;26535;48.788;9.214;2023-09-07T20:45:53;21.50;88.20
40816;DHT22;26535;48.788;9.214;2023-09-07T20:48:19;21.40;88.10
40816;DHT22;26535;48.788;9.214;2023-09-07T20:50:45;21.40;89.10
40816;DHT22;26535;48.788;9.214;2023-09-07T20:53:12;21.30;88.90
40816;DHT22;26535;48.788;9.214;2023-09-07T20:55:38;21.30;89.40
40816;DHT22;26535;48.788;9.214;2023-09-07T20:58:03;21.20;89.90
40816;DHT22;26535;48.788;9.214;2023-09-07T21:00:29;21.10;90.10
40816;DHT22;26535;48.788;9.214;2023-09-07T21:02:55;21.00;90.00
40816;DHT22;26535;48.788;9.214;2023-09-07T21:05:21;21.00;90.30
40816;DHT22;26535;48.788;9.214;2023-09-07T21:07:46;20.90;90.50
40816;DHT22;26535;48.788;9.214;2023-09-07T21:10:12;20.80;90.30
40816;DHT22;26535;48.788;9.214;2023-09-07T21:12:42;20.80;90.30
40816;DHT22;26535;48.788;9.214;2023-09-07T21:15:08;20.80;90.10
40816;DHT22;26535;48.788;9.214;2023-09-07T21:17:39;20.70;90.30
40816;DHT22;26535;48.788;9.214;2023-09-07T21:20:06;20.70;90.10
40816;DHT22;26535;48.788;9.214;2023-09-07T21:22:32;20.70;90.50
40816;DHT22;26535;48.788;9.214;2023-09-07T21:24:58;20.70;90.40
40816;DHT22;26535;48.788;9.214;2023-09-07T21:27:24;20.60;90.60